Photometre #741[NE_1.6] Arcachon AOT

File : 20221126_741.hum

26/11/2022,08:16:40,TEMP=6.1,BA=5.64,STAT.A=1.5,ExtBa=12.76
26/11/2022,08:21:23,TEMP=6.4,BA=5.64,STAT.A=1.5,ExtBa=12.82
26/11/2022,08:27:01,TEMP=6.8,BA=5.64,STAT.A=1.5,ExtBa=12.75
26/11/2022,08:33:46,TEMP=6.9,BA=5.60,STAT.A=1.5,ExtBa=12.63
26/11/2022,08:42:08,TEMP=7.0,BA=5.64,STAT.A=1.5,ExtBa=12.61
26/11/2022,08:52:14,TEMP=6.9,BA=5.52,STAT.F,ExtBa=12.57
26/11/2022,09:07:12,TEMP=7.4,BA=5.64,STAT.D=1.5,ExtBa=12.99
26/11/2022,09:22:12,TEMP=7.9,BA=5.64,STAT.D=1.5,ExtBa=12.87
26/11/2022,09:37:12,TEMP=8.4,BA=5.64,STAT.D=1.5,ExtBa=12.82
26/11/2022,09:52:14,TEMP=9.1,BA=5.64,STAT.F,ExtBa=12.72
26/11/2022,10:07:12,TEMP=9.7,BA=5.64,STAT.D=1.5,ExtBa=12.72
26/11/2022,10:22:12,TEMP=10.2,BA=5.64,STAT.D=1.5,ExtBa=12.77
26/11/2022,10:37:13,TEMP=10.8,BA=5.64,STAT.D=1.5,ExtBa=13.00
26/11/2022,10:52:14,TEMP=11.1,BA=5.64,STAT.F,ExtBa=13.22
26/11/2022,11:07:13,TEMP=11.9,BA=5.40,STAT.D=2.0,ExtBa=12.74
26/11/2022,11:22:13,TEMP=12.6,BA=5.64,STAT.D=2.0,ExtBa=13.10
26/11/2022,11:37:13,TEMP=12.8,BA=5.64,STAT.D=2.0,ExtBa=13.28
26/11/2022,11:52:14,TEMP=12.9,BA=5.64,STAT.F,ExtBa=13.31
26/11/2022,12:07:13,TEMP=14.2,BA=5.44,STAT.D=2.0,ExtBa=12.67
26/11/2022,12:22:13,TEMP=14.0,BA=5.64,STAT.D=2.0,ExtBa=13.20
26/11/2022,12:37:13,TEMP=13.9,BA=5.64,STAT.D=2.0,ExtBa=13.54
26/11/2022,12:52:14,TEMP=14.4,BA=5.64,STAT.F,ExtBa=13.38
26/11/2022,13:07:13,TEMP=14.4,BA=5.40,STAT.D=2.0,ExtBa=12.58
26/11/2022,13:22:12,TEMP=13.9,BA=5.64,STAT.D=2.0,ExtBa=12.81
26/11/2022,13:37:12,TEMP=13.9,BA=5.64,STAT.D=2.0,ExtBa=12.98
26/11/2022,13:52:14,TEMP=14.6,BA=5.64,STAT.F,ExtBa=13.22
26/11/2022,14:07:12,TEMP=14.7,BA=5.40,STAT.D=2.0,ExtBa=12.54
26/11/2022,14:22:12,TEMP=14.5,BA=5.64,STAT.D=2.0,ExtBa=12.84
26/11/2022,14:37:12,TEMP=14.5,BA=5.64,STAT.D=2.0,ExtBa=12.80
26/11/2022,14:52:14,TEMP=14.1,BA=5.64,STAT.F,ExtBa=12.71
26/11/2022,15:07:42,TEMP=13.9,BA=5.36,STAT.A=2.0,ExtBa=12.50
26/11/2022,15:10:41,TEMP=13.8,BA=5.48,STAT.A=2.0,ExtBa=12.57
26/11/2022,15:17:26,TEMP=13.6,BA=5.48,STAT.A=2.0,ExtBa=12.64
26/11/2022,15:23:03,TEMP=13.5,BA=5.48,STAT.A=2.0,ExtBa=12.63
26/11/2022,15:27:46,TEMP=13.4,BA=5.48,STAT.A=2.0,ExtBa=12.63